sensor_id;sensor_type;location;lat;lon;timestamp;temperature;humidity
53310;DHT22;39197;53.200;5.792;2022-10-15T00:02:13;12.80;99.90
53310;DHT22;39197;53.200;5.792;2022-10-15T00:04:38;12.70;99.90
53310;DHT22;39197;53.200;5.792;2022-10-15T00:07:04;12.80;99.90
53310;DHT22;39197;53.200;5.792;2022-10-15T00:09:29;12.70;99.90
53310;DHT22;39197;53.200;5.792;2022-10-15T00:11:55;12.70;99.90
53310;DHT22;39197;53.200;5.792;2022-10-15T00:14:21;12.70;99.90
53310;DHT22;39197;53.200;5.792;2022-10-15T00:16:46;12.70;99.90
53310;DHT22;39197;53.200;5.792;2022-10-15T00:19:12;12.70;99.90
53310;DHT22;39197;53.200;5.792;2022-10-15T00:21:38;12.70;99.90
53310;DHT22;39197;53.200;5.792;2022-10-15T00:24:04;12.70;99.90
53310;DHT22;39197;53.200;5.792;2022-10-15T00:26:30;12.70;99.90
53310;DHT22;39197;53.200;5.792;2022-10-15T00:28:59;12.70;99.90
53310;DHT22;39197;53.200;5.792;2022-10-15T00:31:27;12.70;99.90
53310;DHT22;39197;53.200;5.792;2022-10-15T00:33:55;12.70;99.90
53310;DHT22;39197;53.200;5.792;2022-10-15T00:36:27;12.80;99.90
53310;DHT22;39197;53.200;5.792;2022-10-15T00:38:54;12.70;99.90
53310;DHT22;39197;53.200;5.792;2022-10-15T00:41:35;12.70;99.90
53310;DHT22;39197;53.200;5.792;2022-10-15T00:46:53;12.70;99.90
53310;DHT22;39197;53.200;5.792;2022-10-15T00:49:24;12.70;99.90
53310;DHT22;39197;53.200;5.792;2022-10-15T00:52:15;12.70;99.90
53310;DHT22;39197;53.200;5.792;2022-10-15T00:54:57;12.80;99.90
53310;DHT22;39197;53.200;5.792;2022-10-15T00:57:24;12.80;99.90
53310;DHT22;39197;53.200;5.792;2022-10-15T00:59:54;12.80;99.90
53310;DHT22;39197;53.200;5.792;2022-10-15T01:02:21;12.80;99.90
53310;DHT22;39197;53.200;5.792;2022-10-15T01:04:48;12.80;99.90
53310;DHT22;39197;53.200;5.792;2022-10-15T01:07:14;12.80;99.90
53310;DHT22;39197;53.200;5.792;2022-10-15T01:09:40;12.80;99.90
53310;DHT22;39197;53.200;5.792;2022-10-15T01:12:15;12.80;99.90
53310;DHT22;39197;53.200;5.792;2022-10-15T01:15:04;12.80;99.90
53310;DHT22;39197;53.200;5.792;2022-10-15T01:17:35;12.80;99.90
53310;DHT22;39197;53.200;5.792;2022-10-15T01:26:16;12.80;99.90
53310;DHT22;39197;53.200;5.792;2022-10-15T01:29:03;12.80;99.90
53310;DHT22;39197;53.200;5.792;2022-10-15T01:31:43;12.70;99.90
53310;DHT22;39197;53.200;5.792;2022-10-15T01:39:48;12.70;99.90
53310;DHT22;39197;53.200;5.792;2022-10-15T01:42:21;12.70;99.90
53310;DHT22;39197;53.200;5.792;2022-10-15T01:44:53;12.70;99.90
53310;DHT22;39197;53.200;5.792;2022-10-15T01:47:51;12.70;99.90
53310;DHT22;39197;53.200;5.792;2022-10-15T01:50:20;12.70;99.90
53310;DHT22;39197;53.200;5.792;2022-10-15T01:52:49;12.60;99.90
53310;DHT22;39197;53.200;5.792;2022-10-15T01:55:18;12.60;99.90
53310;DHT22;39197;53.200;5.792;2022-10-15T01:57:48;12.70;99.90
53310;DHT22;39197;53.200;5.792;2022-10-15T02:00:14;12.60;99.90
53310;DHT22;39197;53.200;5.792;2022-10-15T02:02:40;12.60;99.90
53310;DHT22;39197;53.200;5.792;2022-10-15T02:05:09;12.60;99.90
53310;DHT22;39197;53.200;5.792;2022-10-15T02:07:46;12.60;99.90
53310;DHT22;39197;53.200;5.792;2022-10-15T02:10:27;12.60;99.90
53310;DHT22;39197;53.200;5.792;2022-10-15T02:13:32;12.60;99.90
53310;DHT22;39197;53.200;5.792;2022-10-15T02:16:22;12.70;99.90
53310;DHT22;39197;53.200;5.792;2022-10-15T02:19:04;12.60;99.90
53310;DHT22;39197;53.200;5.792;2022-10-15T02:21:40;12.60;99.90
53310;DHT22;39197;53.200;5.792;2022-10-15T02:24:12;12.60;99.90
53310;DHT22;39197;53.200;5.792;2022-10-15T02:26:40;12.60;99.90
53310;DHT22;39197;53.200;5.792;2022-10-15T02:29:12;12.60;99.90
53310;DHT22;39197;53.200;5.792;2022-10-15T02:31:40;12.60;99.90
53310;DHT22;39197;53.200;5.792;2022-10-15T02:34:09;12.60;99.90
53310;DHT22;39197;53.200;5.792;2022-10-15T02:36:38;12.60;99.90
53310;DHT22;39197;53.200;5.792;2022-10-15T02:39:06;12.60;99.90
53310;DHT22;39197;53.200;5.792;2022-10-15T02:41:35;12.60;99.90
53310;DHT22;39197;53.200;5.792;2022-10-15T02:44:02;12.60;99.90
53310;DHT22;39197;53.200;5.792;2022-10-15T02:46:28;12.60;99.90
53310;DHT22;39197;53.200;5.792;2022-10-15T02:48:53;12.60;99.90
53310;DHT22;39197;53.200;5.792;2022-10-15T02:51:19;12.60;99.90
53310;DHT22;39197;53.200;5.792;2022-10-15T02:53:44;12.60;99.90
53310;DHT22;39197;53.200;5.792;2022-10-15T02:56:10;12.60;99.90
53310;DHT22;39197;53.200;5.792;2022-10-15T02:58:35;12.60;99.90
53310;DHT22;39197;53.200;5.792;2022-10-15T03:01:01;12.60;99.90
53310;DHT22;39197;53.200;5.792;2022-10-15T03:03:27;12.60;99.90
53310;DHT22;39197;53.200;5.792;2022-10-15T03:05:52;12.60;99.90
53310;DHT22;39197;53.200;5.792;2022-10-15T03:08:18;12.60;99.90
53310;DHT22;39197;53.200;5.792;2022-10-15T03:10:43;12.60;99.90
53310;DHT22;39197;53.200;5.792;2022-10-15T03:13:10;12.60;99.90
53310;DHT22;39197;53.200;5.792;2022-10-15T03:15:36;12.60;99.90
53310;DHT22;39197;53.200;5.792;2022-10-15T03:18:02;12.50;99.90
53310;DHT22;39197;53.200;5.792;2022-10-15T03:20:28;12.60;99.90
53310;DHT22;39197;53.200;5.792;2022-10-15T03:22:54;12.50;99.90
53310;DHT22;39197;53.200;5.792;2022-10-15T03:25:19;12.50;99.90
53310;DHT22;39197;53.200;5.792;2022-10-15T03:27:45;12.50;99.90
53310;DHT22;39197;53.200;5.792;2022-10-15T03:30:10;12.50;99.90
53310;DHT22;39197;53.200;5.792;2022-10-15T03:32:36;12.50;99.90
53310;DHT22;39197;53.200;5.792;2022-10-15T03:35:02;12.50;99.90
53310;DHT22;39197;53.200;5.792;2022-10-15T03:37:27;12.50;99.90
53310;DHT22;39197;53.200;5.792;2022-10-15T03:39:53;12.50;99.90
53310;DHT22;39197;53.200;5.792;2022-10-15T03:42:18;12.50;99.90
53310;DHT22;39197;53.200;5.792;2022-10-15T03:44:44;12.40;99.90
53310;DHT22;39197;53.200;5.792;2022-10-15T03:47:10;12.40;99.90
53310;DHT22;39197;53.200;5.792;2022-10-15T03:49:35;12.40;99.90
53310;DHT22;39197;53.200;5.792;2022-10-15T03:52:01;12.40;99.90
53310;DHT22;39197;53.200;5.792;2022-10-15T03:54:26;12.40;99.90
53310;DHT22;39197;53.200;5.792;2022-10-15T03:56:52;12.40;99.90
53310;DHT22;39197;53.200;5.792;2022-10-15T03:59:17;12.40;99.90
53310;DHT22;39197;53.200;5.792;2022-10-15T04:01:43;12.40;99.90
53310;DHT22;39197;53.200;5.792;2022-10-15T04:04:10;12.40;99.90
53310;DHT22;39197;53.200;5.792;2022-10-15T04:06:37;12.40;99.90
53310;DHT22;39197;53.200;5.792;2022-10-15T04:09:02;12.40;99.90
53310;DHT22;39197;53.200;5.792;2022-10-15T04:11:28;12.40;99.90
53310;DHT22;39197;53.200;5.792;2022-10-15T04:13:53;12.40;99.90
53310;DHT22;39197;53.200;5.792;2022-10-15T04:16:19;12.30;99.90
53310;DHT22;39197;53.200;5.792;2022-10-15T04:18:44;12.40;99.90
53310;DHT22;39197;53.200;5.792;2022-10-15T04:21:10;12.30;99.90
53310;DHT22;39197;53.200;5.792;2022-10-15T04:23:36;12.30;99.90
53310;DHT22;39197;53.200;5.792;2022-10-15T04:26:01;12.30;99.90
53310;DHT22;39197;53.200;5.792;2022-10-15T04:28:27;12.40;99.90
53310;DHT22;39197;53.200;5.792;2022-10-15T04:31:00;12.30;99.90
53310;DHT22;39197;53.200;5.792;2022-10-15T04:33:26;12.30;99.90
53310;DHT22;39197;53.200;5.792;2022-10-15T04:36:04;12.30;99.90
53310;DHT22;39197;53.200;5.792;2022-10-15T04:38:30;12.30;99.90
53310;DHT22;39197;53.200;5.792;2022-10-15T04:41:00;12.30;99.90
53310;DHT22;39197;53.200;5.792;2022-10-15T04:43:27;12.30;99.90
53310;DHT22;39197;53.200;5.792;2022-10-15T04:45:55;12.30;99.90
53310;DHT22;39197;53.200;5.792;2022-10-15T04:48:21;12.30;99.90
53310;DHT22;39197;53.200;5.792;2022-10-15T04:50:47;12.30;99.90
53310;DHT22;39197;53.200;5.792;2022-10-15T04:53:12;12.30;99.90
53310;DHT22;39197;53.200;5.792;2022-10-15T04:55:38;12.30;99.90
53310;DHT22;39197;53.200;5.792;2022-10-15T04:58:03;12.30;99.90
53310;DHT22;39197;53.200;5.792;2022-10-15T05:00:29;12.40;99.90
53310;DHT22;39197;53.200;5.792;2022-10-15T05:02:54;12.30;99.90
53310;DHT22;39197;53.200;5.792;2022-10-15T05:05:20;12.30;99.90
53310;DHT22;39197;53.200;5.792;2022-10-15T05:07:45;12.30;99.90
53310;DHT22;39197;53.200;5.792;2022-10-15T05:10:11;12.40;99.90
53310;DHT22;39197;53.200;5.792;2022-10-15T05:12:37;12.30;99.90
53310;DHT22;39197;53.200;5.792;2022-10-15T05:15:02;12.40;99.90
53310;DHT22;39197;53.200;5.792;2022-10-15T05:17:29;12.40;99.90
53310;DHT22;39197;53.200;5.792;2022-10-15T05:19:55;12.40;99.90
53310;DHT22;39197;53.200;5.792;2022-10-15T05:22:20;12.40;99.90
53310;DHT22;39197;53.200;5.792;2022-10-15T05:24:46;12.40;99.90
53310;DHT22;39197;53.200;5.792;2022-10-15T05:27:11;12.40;99.90
53310;DHT22;39197;53.200;5.792;2022-10-15T05:29:37;12.40;99.90
53310;DHT22;39197;53.200;5.792;2022-10-15T05:32:04;12.50;99.90
53310;DHT22;39197;53.200;5.792;2022-10-15T05:34:30;12.40;99.90
53310;DHT22;39197;53.200;5.792;2022-10-15T05:36:55;12.40;99.90
53310;DHT22;39197;53.200;5.792;2022-10-15T05:39:21;12.40;99.90
53310;DHT22;39197;53.200;5.792;2022-10-15T05:41:47;12.40;99.90
53310;DHT22;39197;53.200;5.792;2022-10-15T05:44:13;12.40;99.90
53310;DHT22;39197;53.200;5.792;2022-10-15T05:46:39;12.40;99.90
53310;DHT22;39197;53.200;5.792;2022-10-15T05:49:05;12.40;99.90
53310;DHT22;39197;53.200;5.792;2022-10-15T05:51:31;12.40;99.90
53310;DHT22;39197;53.200;5.792;2022-10-15T05:53:57;12.30;99.90
53310;DHT22;39197;53.200;5.792;2022-10-15T05:56:24;12.30;99.90
53310;DHT22;39197;53.200;5.792;2022-10-15T05:58:50;12.40;99.90
53310;DHT22;39197;53.200;5.792;2022-10-15T06:01:16;12.30;99.90
53310;DHT22;39197;53.200;5.792;2022-10-15T06:03:42;12.30;99.90
53310;DHT22;39197;53.200;5.792;2022-10-15T06:06:19;12.30;99.90
53310;DHT22;39197;53.200;5.792;2022-10-15T06:08:45;12.30;99.90
53310;DHT22;39197;53.200;5.792;2022-10-15T06:11:11;12.30;99.90
53310;DHT22;39197;53.200;5.792;2022-10-15T06:13:41;12.30;99.90
53310;DHT22;39197;53.200;5.792;2022-10-15T06:16:07;12.30;99.90
53310;DHT22;39197;53.200;5.792;2022-10-15T06:18:34;12.30;99.90
53310;DHT22;39197;53.200;5.792;2022-10-15T06:21:00;12.30;99.90
53310;DHT22;39197;53.200;5.792;2022-10-15T06:23:26;12.30;99.90
53310;DHT22;39197;53.200;5.792;2022-10-15T06:25:51;12.30;99.90
53310;DHT22;39197;53.200;5.792;2022-10-15T06:28:17;12.30;99.90
53310;DHT22;39197;53.200;5.792;2022-10-15T06:30:43;12.30;99.90
53310;DHT22;39197;53.200;5.792;2022-10-15T06:33:09;12.40;99.90
53310;DHT22;39197;53.200;5.792;2022-10-15T06:35:35;12.40;99.90
53310;DHT22;39197;53.200;5.792;2022-10-15T06:38:02;12.40;99.90
53310;DHT22;39197;53.200;5.792;2022-10-15T06:40:27;12.40;99.90
53310;DHT22;39197;53.200;5.792;2022-10-15T06:42:53;12.40;99.90
53310;DHT22;39197;53.200;5.792;2022-10-15T06:45:18;12.40;99.90
53310;DHT22;39197;53.200;5.792;2022-10-15T06:47:44;12.40;99.90
53310;DHT22;39197;53.200;5.792;2022-10-15T06:50:11;12.50;99.90
53310;DHT22;39197;53.200;5.792;2022-10-15T06:52:37;12.40;99.90
53310;DHT22;39197;53.200;5.792;2022-10-15T06:55:03;12.40;99.90
53310;DHT22;39197;53.200;5.792;2022-10-15T06:57:29;12.30;99.90
53310;DHT22;39197;53.200;5.792;2022-10-15T06:59:55;12.30;99.90
53310;DHT22;39197;53.200;5.792;2022-10-15T07:02:21;12.40;99.90
53310;DHT22;39197;53.200;5.792;2022-10-15T07:04:47;12.40;99.90
53310;DHT22;39197;53.200;5.792;2022-10-15T07:07:13;12.40;99.90
53310;DHT22;39197;53.200;5.792;2022-10-15T07:09:38;12.40;99.90
53310;DHT22;39197;53.200;5.792;2022-10-15T07:12:04;12.40;99.90
53310;DHT22;39197;53.200;5.792;2022-10-15T07:14:30;12.50;99.90
53310;DHT22;39197;53.200;5.792;2022-10-15T07:16:57;12.50;99.90
53310;DHT22;39197;53.200;5.792;2022-10-15T07:19:23;12.50;99.90
53310;DHT22;39197;53.200;5.792;2022-10-15T07:21:48;12.50;99.90
53310;DHT22;39197;53.200;5.792;2022-10-15T07:24:14;12.60;99.90
53310;DHT22;39197;53.200;5.792;2022-10-15T07:26:39;12.60;99.90
53310;DHT22;39197;53.200;5.792;2022-10-15T07:29:05;12.70;99.90
53310;DHT22;39197;53.200;5.792;2022-10-15T07:31:31;12.70;99.90
53310;DHT22;39197;53.200;5.792;2022-10-15T07:33:56;12.80;99.90
53310;DHT22;39197;53.200;5.792;2022-10-15T07:36:22;12.80;99.90
53310;DHT22;39197;53.200;5.792;2022-10-15T07:38:47;12.80;99.90
53310;DHT22;39197;53.200;5.792;2022-10-15T07:41:13;12.80;99.90
53310;DHT22;39197;53.200;5.792;2022-10-15T07:43:39;12.80;99.90
53310;DHT22;39197;53.200;5.792;2022-10-15T07:46:05;12.90;99.90
53310;DHT22;39197;53.200;5.792;2022-10-15T07:48:31;12.90;99.90
53310;DHT22;39197;53.200;5.792;2022-10-15T07:50:59;12.90;99.90
53310;DHT22;39197;53.200;5.792;2022-10-15T07:53:25;12.90;99.90
53310;DHT22;39197;53.200;5.792;2022-10-15T07:55:52;12.80;99.90
53310;DHT22;39197;53.200;5.792;2022-10-15T07:58:18;12.90;99.90
53310;DHT22;39197;53.200;5.792;2022-10-15T08:00:44;12.80;99.90
53310;DHT22;39197;53.200;5.792;2022-10-15T08:03:09;12.80;99.90
53310;DHT22;39197;53.200;5.792;2022-10-15T08:05:35;12.90;99.90
53310;DHT22;39197;53.200;5.792;2022-10-15T08:08:00;12.80;99.90
53310;DHT22;39197;53.200;5.792;2022-10-15T08:10:26;12.80;99.90
53310;DHT22;39197;53.200;5.792;2022-10-15T08:12:52;12.80;99.90
53310;DHT22;39197;53.200;5.792;2022-10-15T08:15:18;12.70;99.90
53310;DHT22;39197;53.200;5.792;2022-10-15T08:17:44;12.70;99.90
53310;DHT22;39197;53.200;5.792;2022-10-15T08:20:10;12.80;99.90
53310;DHT22;39197;53.200;5.792;2022-10-15T08:22:36;12.80;99.90
53310;DHT22;39197;53.200;5.792;2022-10-15T08:25:02;12.80;99.90
53310;DHT22;39197;53.200;5.792;2022-10-15T08:27:28;12.80;99.90
53310;DHT22;39197;53.200;5.792;2022-10-15T08:29:53;12.90;99.90
53310;DHT22;39197;53.200;5.792;2022-10-15T08:32:19;12.90;99.90
53310;DHT22;39197;53.200;5.792;2022-10-15T08:34:44;12.90;99.90
53310;DHT22;39197;53.200;5.792;2022-10-15T08:37:10;12.90;99.90
53310;DHT22;39197;53.200;5.792;2022-10-15T08:39:36;12.90;99.90
53310;DHT22;39197;53.200;5.792;2022-10-15T08:42:04;12.90;99.90
53310;DHT22;39197;53.200;5.792;2022-10-15T08:44:50;13.00;99.90
53310;DHT22;39197;53.200;5.792;2022-10-15T08:49:59;13.10;99.90
53310;DHT22;39197;53.200;5.792;2022-10-15T08:52:42;13.10;99.90
53310;DHT22;39197;53.200;5.792;2022-10-15T08:55:15;13.10;99.90
53310;DHT22;39197;53.200;5.792;2022-10-15T08:58:02;13.10;99.90
53310;DHT22;39197;53.200;5.792;2022-10-15T09:01:03;13.10;99.90
53310;DHT22;39197;53.200;5.792;2022-10-15T09:03:56;13.00;99.90
53310;DHT22;39197;53.200;5.792;2022-10-15T09:06:32;13.10;99.90
53310;DHT22;39197;53.200;5.792;2022-10-15T09:14:15;13.10;99.90
53310;DHT22;39197;53.200;5.792;2022-10-15T09:16:45;13.10;99.90
53310;DHT22;39197;53.200;5.792;2022-10-15T09:19:16;13.10;99.90
53310;DHT22;39197;53.200;5.792;2022-10-15T09:21:43;13.20;99.90
53310;DHT22;39197;53.200;5.792;2022-10-15T09:24:11;13.20;99.90
53310;DHT22;39197;53.200;5.792;2022-10-15T09:26:54;13.20;99.90
53310;DHT22;39197;53.200;5.792;2022-10-15T09:29:39;13.20;99.90
53310;DHT22;39197;53.200;5.792;2022-10-15T09:37:37;13.30;99.90
53310;DHT22;39197;53.200;5.792;2022-10-15T09:40:19;13.30;99.90
53310;DHT22;39197;53.200;5.792;2022-10-15T09:42:50;13.40;99.90
53310;DHT22;39197;53.200;5.792;2022-10-15T09:45:17;13.40;99.90
53310;DHT22;39197;53.200;5.792;2022-10-15T09:47:43;13.40;99.90
53310;DHT22;39197;53.200;5.792;2022-10-15T09:50:12;13.40;99.90
53310;DHT22;39197;53.200;5.792;2022-10-15T09:52:52;13.30;99.90
53310;DHT22;39197;53.200;5.792;2022-10-15T09:57:52;13.20;99.90
53310;DHT22;39197;53.200;5.792;2022-10-15T10:00:19;13.20;99.90
53310;DHT22;39197;53.200;5.792;2022-10-15T10:03:04;13.20;99.90
53310;DHT22;39197;53.200;5.792;2022-10-15T10:05:32;13.20;99.90
53310;DHT22;39197;53.200;5.792;2022-10-15T10:10:34;13.20;99.90
53310;DHT22;39197;53.200;5.792;2022-10-15T10:13:00;13.20;99.90
53310;DHT22;39197;53.200;5.792;2022-10-15T10:15:32;13.20;99.90
53310;DHT22;39197;53.200;5.792;2022-10-15T10:17:58;13.30;99.90
53310;DHT22;39197;53.200;5.792;2022-10-15T10:20:28;13.40;99.90
53310;DHT22;39197;53.200;5.792;2022-10-15T10:22:59;13.40;99.90
53310;DHT22;39197;53.200;5.792;2022-10-15T10:25:29;13.40;99.90
53310;DHT22;39197;53.200;5.792;2022-10-15T10:27:58;13.40;99.90
53310;DHT22;39197;53.200;5.792;2022-10-15T10:30:32;13.40;99.90
53310;DHT22;39197;53.200;5.792;2022-10-15T10:32:59;13.40;99.90
53310;DHT22;39197;53.200;5.792;2022-10-15T10:35:34;13.40;99.90
53310;DHT22;39197;53.200;5.792;2022-10-15T10:38:01;13.50;99.90
53310;DHT22;39197;53.200;5.792;2022-10-15T10:40:29;13.50;99.90
53310;DHT22;39197;53.200;5.792;2022-10-15T10:48:24;13.60;99.90
53310;DHT22;39197;53.200;5.792;2022-10-15T10:51:02;13.60;99.90
53310;DHT22;39197;53.200;5.792;2022-10-15T10:53:28;13.60;99.90
53310;DHT22;39197;53.200;5.792;2022-10-15T10:55:55;13.70;99.90
53310;DHT22;39197;53.200;5.792;2022-10-15T10:58:22;13.70;99.90
53310;DHT22;39197;53.200;5.792;2022-10-15T11:00:51;13.80;99.90
53310;DHT22;39197;53.200;5.792;2022-10-15T11:03:33;13.90;99.90
53310;DHT22;39197;53.200;5.792;2022-10-15T11:17:00;15.00;99.90
53310;DHT22;39197;53.200;5.792;2022-10-15T11:28:00;15.70;99.90
53310;DHT22;39197;53.200;5.792;2022-10-15T11:30:51;15.80;99.90
53310;DHT22;39197;53.200;5.792;2022-10-15T11:33:25;15.70;99.90
53310;DHT22;39197;53.200;5.792;2022-10-15T11:38:47;15.50;99.90
53310;DHT22;39197;53.200;5.792;2022-10-15T11:44:17;15.50;99.90
53310;DHT22;39197;53.200;5.792;2022-10-15T11:49:46;15.30;99.90
53310;DHT22;39197;53.200;5.792;2022-10-15T11:55:21;15.10;99.90
53310;DHT22;39197;53.200;5.792;2022-10-15T11:57:50;15.10;99.90
53310;DHT22;39197;53.200;5.792;2022-10-15T12:00:23;15.20;99.90
53310;DHT22;39197;53.200;5.792;2022-10-15T12:02:53;15.30;99.90
53310;DHT22;39197;53.200;5.792;2022-10-15T12:05:34;15.40;99.90
53310;DHT22;39197;53.200;5.792;2022-10-15T12:08:02;15.60;99.90
53310;DHT22;39197;53.200;5.792;2022-10-15T12:13:18;15.80;99.90
53310;DHT22;39197;53.200;5.792;2022-10-15T12:18:32;15.90;99.90
53310;DHT22;39197;53.200;5.792;2022-10-15T12:21:01;16.00;99.90
53310;DHT22;39197;53.200;5.792;2022-10-15T12:26:02;16.00;99.90
53310;DHT22;39197;53.200;5.792;2022-10-15T12:28:49;16.00;99.90
53310;DHT22;39197;53.200;5.792;2022-10-15T12:31:15;16.00;99.90
53310;DHT22;39197;53.200;5.792;2022-10-15T12:33:49;15.90;99.90
53310;DHT22;39197;53.200;5.792;2022-10-15T12:39:22;15.80;99.90
53310;DHT22;39197;53.200;5.792;2022-10-15T12:41:49;15.70;99.90
53310;DHT22;39197;53.200;5.792;2022-10-15T12:44:30;15.50;99.90
53310;DHT22;39197;53.200;5.792;2022-10-15T12:46:57;15.50;99.90
53310;DHT22;39197;53.200;5.792;2022-10-15T12:51:56;15.20;99.90
53310;DHT22;39197;53.200;5.792;2022-10-15T12:54:33;15.10;99.90
53310;DHT22;39197;53.200;5.792;2022-10-15T12:57:00;15.00;99.90
53310;DHT22;39197;53.200;5.792;2022-10-15T13:02:33;14.90;99.90
53310;DHT22;39197;53.200;5.792;2022-10-15T13:05:00;14.80;99.90
53310;DHT22;39197;53.200;5.792;2022-10-15T13:07:26;14.80;99.90
53310;DHT22;39197;53.200;5.792;2022-10-15T13:09:52;14.70;99.90
53310;DHT22;39197;53.200;5.792;2022-10-15T13:12:23;14.70;99.90
53310;DHT22;39197;53.200;5.792;2022-10-15T13:14:55;14.70;99.90
53310;DHT22;39197;53.200;5.792;2022-10-15T13:17:22;14.80;99.90
53310;DHT22;39197;53.200;5.792;2022-10-15T13:19:59;14.60;99.90
53310;DHT22;39197;53.200;5.792;2022-10-15T13:22:29;14.60;99.90
53310;DHT22;39197;53.200;5.792;2022-10-15T13:24:55;14.60;99.90
53310;DHT22;39197;53.200;5.792;2022-10-15T13:32:31;14.40;99.90
53310;DHT22;39197;53.200;5.792;2022-10-15T13:34:58;14.40;99.90
53310;DHT22;39197;53.200;5.792;2022-10-15T13:37:30;14.30;99.90
53310;DHT22;39197;53.200;5.792;2022-10-15T13:39:56;14.40;99.90
53310;DHT22;39197;53.200;5.792;2022-10-15T13:42:24;14.40;99.90
53310;DHT22;39197;53.200;5.792;2022-10-15T13:45:00;14.30;99.90
53310;DHT22;39197;53.200;5.792;2022-10-15T13:47:32;14.40;99.90
53310;DHT22;39197;53.200;5.792;2022-10-15T13:50:33;14.40;99.90
53310;DHT22;39197;53.200;5.792;2022-10-15T13:53:13;14.40;99.90
53310;DHT22;39197;53.200;5.792;2022-10-15T13:55:50;14.50;99.90
53310;DHT22;39197;53.200;5.792;2022-10-15T13:58:36;14.50;99.90
53310;DHT22;39197;53.200;5.792;2022-10-15T14:01:18;14.40;99.90
53310;DHT22;39197;53.200;5.792;2022-10-15T14:03:56;14.40;99.90
53310;DHT22;39197;53.200;5.792;2022-10-15T14:06:34;14.30;99.90
53310;DHT22;39197;53.200;5.792;2022-10-15T14:09:18;14.20;99.90
53310;DHT22;39197;53.200;5.792;2022-10-15T14:11:44;14.20;99.90
53310;DHT22;39197;53.200;5.792;2022-10-15T14:16:55;14.20;99.90
53310;DHT22;39197;53.200;5.792;2022-10-15T14:19:23;14.20;99.90
53310;DHT22;39197;53.200;5.792;2022-10-15T14:21:59;14.20;99.90
53310;DHT22;39197;53.200;5.792;2022-10-15T14:24:33;14.30;99.90
53310;DHT22;39197;53.200;5.792;2022-10-15T14:27:26;14.40;99.90
53310;DHT22;39197;53.200;5.792;2022-10-15T14:29:57;14.50;99.90
53310;DHT22;39197;53.200;5.792;2022-10-15T14:32:43;14.50;99.90
53310;DHT22;39197;53.200;5.792;2022-10-15T14:35:24;14.50;99.90
53310;DHT22;39197;53.200;5.792;2022-10-15T14:38:05;14.60;99.90
53310;DHT22;39197;53.200;5.792;2022-10-15T14:40:39;14.60;99.90
53310;DHT22;39197;53.200;5.792;2022-10-15T14:43:18;14.60;99.90
53310;DHT22;39197;53.200;5.792;2022-10-15T14:48:23;14.70;99.90
53310;DHT22;39197;53.200;5.792;2022-10-15T14:50:49;14.70;99.90
53310;DHT22;39197;53.200;5.792;2022-10-15T14:53:23;14.70;99.90
53310;DHT22;39197;53.200;5.792;2022-10-15T14:55:52;14.80;99.90
53310;DHT22;39197;53.200;5.792;2022-10-15T14:58:22;14.90;99.90
53310;DHT22;39197;53.200;5.792;2022-10-15T15:00:57;14.90;99.90
53310;DHT22;39197;53.200;5.792;2022-10-15T15:03:29;15.00;99.90
53310;DHT22;39197;53.200;5.792;2022-10-15T15:05:56;15.00;99.90
53310;DHT22;39197;53.200;5.792;2022-10-15T15:08:22;15.00;99.90
53310;DHT22;39197;53.200;5.792;2022-10-15T15:10:49;15.10;99.90
53310;DHT22;39197;53.200;5.792;2022-10-15T15:13:23;15.00;99.90
53310;DHT22;39197;53.200;5.792;2022-10-15T15:15:50;15.00;99.90
53310;DHT22;39197;53.200;5.792;2022-10-15T15:18:16;15.00;99.90
53310;DHT22;39197;53.200;5.792;2022-10-15T15:20:42;15.10;99.90
53310;DHT22;39197;53.200;5.792;2022-10-15T15:23:22;15.20;99.90
53310;DHT22;39197;53.200;5.792;2022-10-15T15:25:48;15.20;99.90
53310;DHT22;39197;53.200;5.792;2022-10-15T15:28:17;15.20;99.90
53310;DHT22;39197;53.200;5.792;2022-10-15T15:30:50;15.20;99.90
53310;DHT22;39197;53.200;5.792;2022-10-15T15:33:19;15.10;99.90
53310;DHT22;39197;53.200;5.792;2022-10-15T15:35:48;15.10;99.90
53310;DHT22;39197;53.200;5.792;2022-10-15T15:38:23;15.00;99.90
53310;DHT22;39197;53.200;5.792;2022-10-15T15:40:59;14.90;99.90
53310;DHT22;39197;53.200;5.792;2022-10-15T15:43:26;15.00;99.90
53310;DHT22;39197;53.200;5.792;2022-10-15T15:45:51;15.00;99.90
53310;DHT22;39197;53.200;5.792;2022-10-15T15:48:17;15.00;99.90
53310;DHT22;39197;53.200;5.792;2022-10-15T15:50:42;15.10;99.90
53310;DHT22;39197;53.200;5.792;2022-10-15T15:53:10;15.00;99.90
53310;DHT22;39197;53.200;5.792;2022-10-15T15:55:36;14.90;99.90
53310;DHT22;39197;53.200;5.792;2022-10-15T15:58:01;14.80;99.90
53310;DHT22;39197;53.200;5.792;2022-10-15T16:00:27;14.80;99.90
53310;DHT22;39197;53.200;5.792;2022-10-15T16:02:53;14.70;99.90
53310;DHT22;39197;53.200;5.792;2022-10-15T16:05:18;14.70;99.90
53310;DHT22;39197;53.200;5.792;2022-10-15T16:07:44;14.60;99.90
53310;DHT22;39197;53.200;5.792;2022-10-15T16:10:10;14.60;99.90
53310;DHT22;39197;53.200;5.792;2022-10-15T16:12:40;14.50;99.90
53310;DHT22;39197;53.200;5.792;2022-10-15T16:15:07;14.50;99.90
53310;DHT22;39197;53.200;5.792;2022-10-15T16:17:33;14.50;99.90
53310;DHT22;39197;53.200;5.792;2022-10-15T16:19:59;14.40;99.90
53310;DHT22;39197;53.200;5.792;2022-10-15T16:22:25;14.40;99.90
53310;DHT22;39197;53.200;5.792;2022-10-15T16:24:50;14.40;99.90
53310;DHT22;39197;53.200;5.792;2022-10-15T16:27:16;14.40;99.90
53310;DHT22;39197;53.200;5.792;2022-10-15T16:29:42;14.40;99.90
53310;DHT22;39197;53.200;5.792;2022-10-15T16:32:07;14.30;99.90
53310;DHT22;39197;53.200;5.792;2022-10-15T16:34:33;14.30;99.90
53310;DHT22;39197;53.200;5.792;2022-10-15T16:36:58;14.40;99.90
53310;DHT22;39197;53.200;5.792;2022-10-15T16:39:24;14.40;99.90
53310;DHT22;39197;53.200;5.792;2022-10-15T16:41:50;14.30;99.90
53310;DHT22;39197;53.200;5.792;2022-10-15T16:44:15;14.20;99.90
53310;DHT22;39197;53.200;5.792;2022-10-15T16:46:41;14.20;99.90
53310;DHT22;39197;53.200;5.792;2022-10-15T16:49:07;14.20;99.90
53310;DHT22;39197;53.200;5.792;2022-10-15T16:51:33;14.20;99.90
53310;DHT22;39197;53.200;5.792;2022-10-15T16:53:59;14.20;99.90
53310;DHT22;39197;53.200;5.792;2022-10-15T16:56:26;14.10;99.90
53310;DHT22;39197;53.200;5.792;2022-10-15T16:58:53;14.10;99.90
53310;DHT22;39197;53.200;5.792;2022-10-15T17:01:21;14.00;99.90
53310;DHT22;39197;53.200;5.792;2022-10-15T17:03:47;14.00;99.90
53310;DHT22;39197;53.200;5.792;2022-10-15T17:06:15;14.00;99.90
53310;DHT22;39197;53.200;5.792;2022-10-15T17:08:49;13.90;99.90
53310;DHT22;39197;53.200;5.792;2022-10-15T17:11:20;13.90;99.90
53310;DHT22;39197;53.200;5.792;2022-10-15T17:13:48;13.80;99.90
53310;DHT22;39197;53.200;5.792;2022-10-15T17:19:18;13.70;99.90
53310;DHT22;39197;53.200;5.792;2022-10-15T17:21:44;13.70;99.90
53310;DHT22;39197;53.200;5.792;2022-10-15T17:24:12;13.80;99.90